sensor_id;sensor_type;location;lat;lon;timestamp;P1;durP1;ratioP1;P2;durP2;ratioP2
8094;SDS011;4090;49.270;8.696;2023-08-20T00:00:56;12.07;;;7.53;;
8094;SDS011;4090;49.270;8.696;2023-08-20T00:03:38;9.82;;;7.50;;
8094;SDS011;4090;49.270;8.696;2023-08-20T00:06:22;13.25;;;7.85;;
8094;SDS011;4090;49.270;8.696;2023-08-20T00:09:05;8.15;;;7.35;;
8094;SDS011;4090;49.270;8.696;2023-08-20T00:11:48;10.23;;;7.75;;
8094;SDS011;4090;49.270;8.696;2023-08-20T00:14:54;10.65;;;7.55;;
8094;SDS011;4090;49.270;8.696;2023-08-20T00:17:38;9.60;;;7.20;;
8094;SDS011;4090;49.270;8.696;2023-08-20T00:20:21;9.52;;;7.20;;
8094;SDS011;4090;49.270;8.696;2023-08-20T00:23:04;10.15;;;7.40;;
8094;SDS011;4090;49.270;8.696;2023-08-20T00:25:46;9.85;;;7.03;;
8094;SDS011;4090;49.270;8.696;2023-08-20T00:28:29;8.25;;;7.18;;
8094;SDS011;4090;49.270;8.696;2023-08-20T00:31:12;11.25;;;7.70;;
8094;SDS011;4090;49.270;8.696;2023-08-20T00:33:54;10.43;;;7.53;;
8094;SDS011;4090;49.270;8.696;2023-08-20T00:36:36;9.15;;;7.25;;
8094;SDS011;4090;49.270;8.696;2023-08-20T00:39:18;8.63;;;7.55;;
8094;SDS011;4090;49.270;8.696;2023-08-20T00:42:00;11.57;;;8.07;;
8094;SDS011;4090;49.270;8.696;2023-08-20T00:44:42;14.73;;;7.88;;
8094;SDS011;4090;49.270;8.696;2023-08-20T00:47:26;9.10;;;7.28;;
8094;SDS011;4090;49.270;8.696;2023-08-20T00:50:09;9.80;;;7.30;;
8094;SDS011;4090;49.270;8.696;2023-08-20T00:52:52;10.27;;;7.40;;
8094;SDS011;4090;49.270;8.696;2023-08-20T00:55:34;11.32;;;7.15;;
8094;SDS011;4090;49.270;8.696;2023-08-20T00:58:17;10.50;;;7.70;;
8094;SDS011;4090;49.270;8.696;2023-08-20T01:01:00;9.90;;;6.90;;
8094;SDS011;4090;49.270;8.696;2023-08-20T01:03:43;11.60;;;7.32;;
8094;SDS011;4090;49.270;8.696;2023-08-20T01:06:28;9.93;;;7.32;;
8094;SDS011;4090;49.270;8.696;2023-08-20T01:12:22;11.48;;;7.10;;
8094;SDS011;4090;49.270;8.696;2023-08-20T01:15:05;10.10;;;7.65;;
8094;SDS011;4090;49.270;8.696;2023-08-20T01:17:52;11.75;;;7.60;;
8094;SDS011;4090;49.270;8.696;2023-08-20T01:20:38;10.70;;;7.20;;
8094;SDS011;4090;49.270;8.696;2023-08-20T01:23:38;10.27;;;7.63;;
8094;SDS011;4090;49.270;8.696;2023-08-20T01:26:40;14.00;;;7.28;;
8094;SDS011;4090;49.270;8.696;2023-08-20T01:29:39;7.95;;;7.15;;
8094;SDS011;4090;49.270;8.696;2023-08-20T01:32:21;11.73;;;7.68;;
8094;SDS011;4090;49.270;8.696;2023-08-20T01:35:04;13.18;;;7.32;;
8094;SDS011;4090;49.270;8.696;2023-08-20T01:37:47;9.32;;;7.53;;
8094;SDS011;4090;49.270;8.696;2023-08-20T01:40:29;7.85;;;6.28;;
8094;SDS011;4090;49.270;8.696;2023-08-20T01:43:11;10.65;;;7.03;;
8094;SDS011;4090;49.270;8.696;2023-08-20T01:45:54;11.45;;;7.63;;
8094;SDS011;4090;49.270;8.696;2023-08-20T01:48:36;11.98;;;7.45;;
8094;SDS011;4090;49.270;8.696;2023-08-20T01:51:18;10.57;;;7.03;;
8094;SDS011;4090;49.270;8.696;2023-08-20T01:54:00;9.48;;;6.75;;
8094;SDS011;4090;49.270;8.696;2023-08-20T01:56:42;7.88;;;6.70;;
8094;SDS011;4090;49.270;8.696;2023-08-20T01:59:24;8.30;;;6.47;;
8094;SDS011;4090;49.270;8.696;2023-08-20T02:02:07;7.68;;;6.18;;
8094;SDS011;4090;49.270;8.696;2023-08-20T02:04:50;9.40;;;6.05;;
8094;SDS011;4090;49.270;8.696;2023-08-20T02:07:31;7.35;;;5.78;;
8094;SDS011;4090;49.270;8.696;2023-08-20T02:10:13;10.10;;;6.65;;
8094;SDS011;4090;49.270;8.696;2023-08-20T02:12:55;11.93;;;7.32;;
8094;SDS011;4090;49.270;8.696;2023-08-20T02:15:38;8.15;;;7.35;;
8094;SDS011;4090;49.270;8.696;2023-08-20T02:18:21;12.88;;;7.57;;
8094;SDS011;4090;49.270;8.696;2023-08-20T02:21:03;14.15;;;7.45;;
8094;SDS011;4090;49.270;8.696;2023-08-20T02:23:45;13.70;;;7.45;;
8094;SDS011;4090;49.270;8.696;2023-08-20T02:26:26;8.52;;;7.05;;
8094;SDS011;4090;49.270;8.696;2023-08-20T02:29:08;10.52;;;7.35;;
8094;SDS011;4090;49.270;8.696;2023-08-20T02:31:50;9.27;;;7.22;;
8094;SDS011;4090;49.270;8.696;2023-08-20T02:34:33;9.43;;;7.28;;
8094;SDS011;4090;49.270;8.696;2023-08-20T02:37:15;9.68;;;7.07;;
8094;SDS011;4090;49.270;8.696;2023-08-20T02:39:58;11.15;;;7.30;;
8094;SDS011;4090;49.270;8.696;2023-08-20T02:42:41;7.72;;;6.93;;
8094;SDS011;4090;49.270;8.696;2023-08-20T02:45:23;10.77;;;8.02;;
8094;SDS011;4090;49.270;8.696;2023-08-20T02:48:05;8.93;;;7.60;;
8094;SDS011;4090;49.270;8.696;2023-08-20T02:50:49;10.73;;;7.30;;
8094;SDS011;4090;49.270;8.696;2023-08-20T02:53:31;12.75;;;7.32;;
8094;SDS011;4090;49.270;8.696;2023-08-20T02:56:13;9.70;;;7.30;;
8094;SDS011;4090;49.270;8.696;2023-08-20T02:58:54;13.73;;;7.47;;
8094;SDS011;4090;49.270;8.696;2023-08-20T03:01:36;10.57;;;7.82;;
8094;SDS011;4090;49.270;8.696;2023-08-20T03:04:18;10.05;;;7.88;;
8094;SDS011;4090;49.270;8.696;2023-08-20T03:07:01;9.93;;;7.63;;
8094;SDS011;4090;49.270;8.696;2023-08-20T03:09:44;13.05;;;7.00;;
8094;SDS011;4090;49.270;8.696;2023-08-20T03:12:26;9.25;;;7.47;;
8094;SDS011;4090;49.270;8.696;2023-08-20T03:15:08;12.45;;;7.85;;
8094;SDS011;4090;49.270;8.696;2023-08-20T03:17:50;12.43;;;7.72;;
8094;SDS011;4090;49.270;8.696;2023-08-20T03:20:32;11.27;;;7.60;;
8094;SDS011;4090;49.270;8.696;2023-08-20T03:23:16;9.88;;;7.47;;
8094;SDS011;4090;49.270;8.696;2023-08-20T03:25:58;11.00;;;7.28;;
8094;SDS011;4090;49.270;8.696;2023-08-20T03:28:40;9.63;;;6.88;;
8094;SDS011;4090;49.270;8.696;2023-08-20T03:31:22;9.20;;;7.05;;
8094;SDS011;4090;49.270;8.696;2023-08-20T03:34:04;11.77;;;7.28;;
8094;SDS011;4090;49.270;8.696;2023-08-20T03:36:46;8.23;;;6.82;;
8094;SDS011;4090;49.270;8.696;2023-08-20T03:39:29;9.32;;;7.28;;
8094;SDS011;4090;49.270;8.696;2023-08-20T03:42:11;8.85;;;7.00;;
8094;SDS011;4090;49.270;8.696;2023-08-20T03:44:53;8.55;;;6.95;;
8094;SDS011;4090;49.270;8.696;2023-08-20T03:47:35;7.30;;;6.50;;
8094;SDS011;4090;49.270;8.696;2023-08-20T03:50:17;11.52;;;7.30;;
8094;SDS011;4090;49.270;8.696;2023-08-20T03:52:59;13.80;;;7.70;;
8094;SDS011;4090;49.270;8.696;2023-08-20T03:55:42;8.73;;;7.13;;
8094;SDS011;4090;49.270;8.696;2023-08-20T03:58:29;10.65;;;7.28;;
8094;SDS011;4090;49.270;8.696;2023-08-20T04:01:11;10.80;;;7.28;;
8094;SDS011;4090;49.270;8.696;2023-08-20T04:03:53;8.80;;;7.28;;
8094;SDS011;4090;49.270;8.696;2023-08-20T04:06:35;9.07;;;7.13;;
8094;SDS011;4090;49.270;8.696;2023-08-20T04:09:17;10.48;;;7.47;;
8094;SDS011;4090;49.270;8.696;2023-08-20T04:12:00;9.32;;;7.63;;
8094;SDS011;4090;49.270;8.696;2023-08-20T04:14:43;9.90;;;6.88;;
8094;SDS011;4090;49.270;8.696;2023-08-20T04:17:25;9.10;;;6.90;;
8094;SDS011;4090;49.270;8.696;2023-08-20T04:20:07;11.82;;;7.63;;
8094;SDS011;4090;49.270;8.696;2023-08-20T04:22:49;10.15;;;7.63;;
8094;SDS011;4090;49.270;8.696;2023-08-20T04:25:31;12.60;;;6.93;;
8094;SDS011;4090;49.270;8.696;2023-08-20T04:28:15;10.55;;;7.35;;
8094;SDS011;4090;49.270;8.696;2023-08-20T04:30:57;9.48;;;7.32;;
8094;SDS011;4090;49.270;8.696;2023-08-20T04:33:46;9.65;;;7.40;;
8094;SDS011;4090;49.270;8.696;2023-08-20T04:36:32;9.95;;;8.00;;
8094;SDS011;4090;49.270;8.696;2023-08-20T04:39:14;12.70;;;7.95;;
8094;SDS011;4090;49.270;8.696;2023-08-20T04:42:00;10.25;;;7.15;;
8094;SDS011;4090;49.270;8.696;2023-08-20T04:44:43;12.27;;;7.38;;
8094;SDS011;4090;49.270;8.696;2023-08-20T04:47:25;8.48;;;7.38;;
8094;SDS011;4090;49.270;8.696;2023-08-20T04:50:08;10.82;;;7.20;;
8094;SDS011;4090;49.270;8.696;2023-08-20T04:52:50;10.57;;;7.15;;
8094;SDS011;4090;49.270;8.696;2023-08-20T04:55:32;9.45;;;7.15;;
8094;SDS011;4090;49.270;8.696;2023-08-20T04:58:14;11.02;;;7.85;;
8094;SDS011;4090;49.270;8.696;2023-08-20T05:00:57;10.43;;;7.32;;
8094;SDS011;4090;49.270;8.696;2023-08-20T05:03:39;7.78;;;6.90;;
8094;SDS011;4090;49.270;8.696;2023-08-20T05:06:21;12.57;;;7.40;;
8094;SDS011;4090;49.270;8.696;2023-08-20T05:09:03;9.20;;;7.45;;
8094;SDS011;4090;49.270;8.696;2023-08-20T05:11:45;11.38;;;7.75;;
8094;SDS011;4090;49.270;8.696;2023-08-20T05:14:28;13.70;;;8.25;;
8094;SDS011;4090;49.270;8.696;2023-08-20T05:17:11;9.63;;;7.47;;
8094;SDS011;4090;49.270;8.696;2023-08-20T05:19:53;9.65;;;7.80;;
8094;SDS011;4090;49.270;8.696;2023-08-20T05:22:35;11.65;;;7.43;;
8094;SDS011;4090;49.270;8.696;2023-08-20T05:25:17;8.20;;;6.70;;
8094;SDS011;4090;49.270;8.696;2023-08-20T05:28:00;10.32;;;7.25;;
8094;SDS011;4090;49.270;8.696;2023-08-20T05:30:43;11.18;;;7.60;;
8094;SDS011;4090;49.270;8.696;2023-08-20T05:33:26;13.50;;;7.63;;
8094;SDS011;4090;49.270;8.696;2023-08-20T05:36:09;10.02;;;7.82;;
8094;SDS011;4090;49.270;8.696;2023-08-20T05:38:51;11.70;;;7.25;;
8094;SDS011;4090;49.270;8.696;2023-08-20T05:41:33;9.20;;;7.65;;
8094;SDS011;4090;49.270;8.696;2023-08-20T05:44:15;9.57;;;7.70;;
8094;SDS011;4090;49.270;8.696;2023-08-20T05:46:56;8.25;;;7.38;;
8094;SDS011;4090;49.270;8.696;2023-08-20T05:49:41;9.18;;;7.18;;
8094;SDS011;4090;49.270;8.696;2023-08-20T05:52:23;8.10;;;7.30;;
8094;SDS011;4090;49.270;8.696;2023-08-20T05:55:06;9.13;;;7.28;;
8094;SDS011;4090;49.270;8.696;2023-08-20T05:57:48;11.88;;;7.68;;
8094;SDS011;4090;49.270;8.696;2023-08-20T06:00:30;8.13;;;7.07;;
8094;SDS011;4090;49.270;8.696;2023-08-20T06:03:12;11.77;;;7.03;;
8094;SDS011;4090;49.270;8.696;2023-08-20T06:05:55;9.38;;;7.50;;
8094;SDS011;4090;49.270;8.696;2023-08-20T06:08:38;12.02;;;7.82;;
8094;SDS011;4090;49.270;8.696;2023-08-20T06:11:20;10.25;;;7.70;;
8094;SDS011;4090;49.270;8.696;2023-08-20T06:14:02;8.32;;;6.97;;
8094;SDS011;4090;49.270;8.696;2023-08-20T06:16:44;8.38;;;7.03;;
8094;SDS011;4090;49.270;8.696;2023-08-20T06:19:26;8.25;;;7.30;;
8094;SDS011;4090;49.270;8.696;2023-08-20T06:22:09;9.85;;;7.05;;
8094;SDS011;4090;49.270;8.696;2023-08-20T06:24:51;11.13;;;6.93;;
8094;SDS011;4090;49.270;8.696;2023-08-20T06:27:33;10.35;;;6.78;;
8094;SDS011;4090;49.270;8.696;2023-08-20T06:30:15;11.32;;;7.05;;
8094;SDS011;4090;49.270;8.696;2023-08-20T06:32:57;8.45;;;7.22;;
8094;SDS011;4090;49.270;8.696;2023-08-20T06:35:39;8.45;;;7.07;;
8094;SDS011;4090;49.270;8.696;2023-08-20T06:38:23;8.80;;;7.10;;
8094;SDS011;4090;49.270;8.696;2023-08-20T06:41:05;7.88;;;7.03;;
8094;SDS011;4090;49.270;8.696;2023-08-20T06:43:46;9.30;;;7.50;;
8094;SDS011;4090;49.270;8.696;2023-08-20T06:46:28;7.90;;;6.18;;
8094;SDS011;4090;49.270;8.696;2023-08-20T06:49:10;9.48;;;7.40;;
8094;SDS011;4090;49.270;8.696;2023-08-20T06:51:52;11.45;;;7.65;;
8094;SDS011;4090;49.270;8.696;2023-08-20T06:54:35;9.63;;;7.20;;
8094;SDS011;4090;49.270;8.696;2023-08-20T06:57:17;10.63;;;7.43;;
8094;SDS011;4090;49.270;8.696;2023-08-20T06:59:59;9.27;;;7.80;;
8094;SDS011;4090;49.270;8.696;2023-08-20T07:02:40;9.95;;;7.55;;
8094;SDS011;4090;49.270;8.696;2023-08-20T07:05:22;11.32;;;8.00;;
8094;SDS011;4090;49.270;8.696;2023-08-20T07:08:04;7.88;;;6.85;;
8094;SDS011;4090;49.270;8.696;2023-08-20T07:10:48;13.07;;;7.95;;
8094;SDS011;4090;49.270;8.696;2023-08-20T07:13:29;9.43;;;7.53;;
8094;SDS011;4090;49.270;8.696;2023-08-20T07:16:11;8.30;;;7.32;;
8094;SDS011;4090;49.270;8.696;2023-08-20T07:18:53;10.55;;;7.57;;
8094;SDS011;4090;49.270;8.696;2023-08-20T07:21:35;9.52;;;7.22;;
8094;SDS011;4090;49.270;8.696;2023-08-20T07:24:17;10.77;;;7.15;;
8094;SDS011;4090;49.270;8.696;2023-08-20T07:27:06;8.68;;;6.40;;
8094;SDS011;4090;49.270;8.696;2023-08-20T07:29:52;11.18;;;7.35;;
8094;SDS011;4090;49.270;8.696;2023-08-20T07:32:34;9.60;;;7.63;;
8094;SDS011;4090;49.270;8.696;2023-08-20T07:35:16;10.65;;;7.53;;
8094;SDS011;4090;49.270;8.696;2023-08-20T07:37:58;8.75;;;6.63;;
8094;SDS011;4090;49.270;8.696;2023-08-20T07:40:39;9.00;;;7.50;;
8094;SDS011;4090;49.270;8.696;2023-08-20T07:43:23;7.78;;;6.97;;
8094;SDS011;4090;49.270;8.696;2023-08-20T07:46:06;8.40;;;6.80;;
8094;SDS011;4090;49.270;8.696;2023-08-20T07:48:48;8.40;;;6.75;;
8094;SDS011;4090;49.270;8.696;2023-08-20T07:51:30;10.07;;;6.88;;
8094;SDS011;4090;49.270;8.696;2023-08-20T07:54:12;8.35;;;7.05;;
8094;SDS011;4090;49.270;8.696;2023-08-20T07:56:55;9.82;;;6.90;;
8094;SDS011;4090;49.270;8.696;2023-08-20T07:59:38;10.02;;;6.28;;
8094;SDS011;4090;49.270;8.696;2023-08-20T08:02:20;6.70;;;6.00;;
8094;SDS011;4090;49.270;8.696;2023-08-20T08:05:03;7.70;;;6.60;;
8094;SDS011;4090;49.270;8.696;2023-08-20T08:07:45;8.35;;;7.25;;
8094;SDS011;4090;49.270;8.696;2023-08-20T08:10:27;11.05;;;6.53;;
8094;SDS011;4090;49.270;8.696;2023-08-20T08:13:10;9.70;;;6.80;;
8094;SDS011;4090;49.270;8.696;2023-08-20T08:15:53;8.95;;;6.90;;
8094;SDS011;4090;49.270;8.696;2023-08-20T08:18:36;8.10;;;6.50;;
8094;SDS011;4090;49.270;8.696;2023-08-20T08:21:18;9.35;;;7.25;;
8094;SDS011;4090;49.270;8.696;2023-08-20T08:24:00;9.98;;;7.07;;
8094;SDS011;4090;49.270;8.696;2023-08-20T08:26:42;8.88;;;6.57;;
8094;SDS011;4090;49.270;8.696;2023-08-20T08:29:24;8.77;;;6.90;;
8094;SDS011;4090;49.270;8.696;2023-08-20T08:32:08;8.02;;;7.07;;
8094;SDS011;4090;49.270;8.696;2023-08-20T08:34:50;8.35;;;6.78;;
8094;SDS011;4090;49.270;8.696;2023-08-20T08:37:32;9.52;;;6.90;;
8094;SDS011;4090;49.270;8.696;2023-08-20T08:40:15;9.70;;;7.40;;
8094;SDS011;4090;49.270;8.696;2023-08-20T08:42:58;9.52;;;6.70;;
8094;SDS011;4090;49.270;8.696;2023-08-20T08:45:40;12.60;;;7.45;;
8094;SDS011;4090;49.270;8.696;2023-08-20T08:48:24;8.65;;;6.93;;
8094;SDS011;4090;49.270;8.696;2023-08-20T08:51:07;8.30;;;7.03;;
8094;SDS011;4090;49.270;8.696;2023-08-20T08:53:49;11.70;;;7.22;;
8094;SDS011;4090;49.270;8.696;2023-08-20T08:56:33;9.35;;;7.50;;
8094;SDS011;4090;49.270;8.696;2023-08-20T08:59:15;11.68;;;7.13;;
8094;SDS011;4090;49.270;8.696;2023-08-20T09:01:57;10.77;;;7.35;;
8094;SDS011;4090;49.270;8.696;2023-08-20T09:04:41;10.60;;;7.45;;
8094;SDS011;4090;49.270;8.696;2023-08-20T09:07:23;9.70;;;7.93;;
8094;SDS011;4090;49.270;8.696;2023-08-20T09:10:06;8.90;;;7.13;;
8094;SDS011;4090;49.270;8.696;2023-08-20T09:12:48;11.68;;;7.20;;
8094;SDS011;4090;49.270;8.696;2023-08-20T09:15:31;9.80;;;7.70;;
8094;SDS011;4090;49.270;8.696;2023-08-20T09:18:15;8.32;;;7.13;;
8094;SDS011;4090;49.270;8.696;2023-08-20T09:20:59;10.88;;;7.38;;
8094;SDS011;4090;49.270;8.696;2023-08-20T09:23:45;8.93;;;7.80;;
8094;SDS011;4090;49.270;8.696;2023-08-20T09:26:27;8.48;;;6.70;;
8094;SDS011;4090;49.270;8.696;2023-08-20T09:29:10;10.25;;;6.85;;
8094;SDS011;4090;49.270;8.696;2023-08-20T09:31:59;12.60;;;7.32;;
8094;SDS011;4090;49.270;8.696;2023-08-20T09:34:41;7.72;;;6.78;;
8094;SDS011;4090;49.270;8.696;2023-08-20T09:37:25;11.13;;;6.97;;
8094;SDS011;4090;49.270;8.696;2023-08-20T09:40:08;11.50;;;7.47;;
8094;SDS011;4090;49.270;8.696;2023-08-20T09:42:50;11.48;;;7.68;;
8094;SDS011;4090;49.270;8.696;2023-08-20T09:45:33;9.95;;;7.63;;
8094;SDS011;4090;49.270;8.696;2023-08-20T09:48:17;8.63;;;7.38;;
8094;SDS011;4090;49.270;8.696;2023-08-20T09:51:01;11.55;;;7.57;;
8094;SDS011;4090;49.270;8.696;2023-08-20T09:53:48;10.70;;;7.47;;
8094;SDS011;4090;49.270;8.696;2023-08-20T09:56:31;9.20;;;7.03;;
8094;SDS011;4090;49.270;8.696;2023-08-20T09:59:18;11.55;;;7.30;;
8094;SDS011;4090;49.270;8.696;2023-08-20T10:02:00;7.70;;;6.95;;
8094;SDS011;4090;49.270;8.696;2023-08-20T10:04:43;8.10;;;7.03;;
8094;SDS011;4090;49.270;8.696;2023-08-20T10:07:25;7.18;;;6.47;;
8094;SDS011;4090;49.270;8.696;2023-08-20T10:10:12;7.82;;;7.03;;
8094;SDS011;4090;49.270;8.696;2023-08-20T10:12:56;8.30;;;6.28;;
8094;SDS011;4090;49.270;8.696;2023-08-20T10:15:39;8.40;;;6.75;;
8094;SDS011;4090;49.270;8.696;2023-08-20T10:18:22;7.95;;;6.43;;
8094;SDS011;4090;49.270;8.696;2023-08-20T10:21:04;8.90;;;6.63;;
8094;SDS011;4090;49.270;8.696;2023-08-20T10:23:48;6.70;;;6.00;;
8094;SDS011;4090;49.270;8.696;2023-08-20T10:26:32;7.20;;;5.78;;
8094;SDS011;4090;49.270;8.696;2023-08-20T10:32:16;8.93;;;6.10;;
8094;SDS011;4090;49.270;8.696;2023-08-20T10:34:58;6.97;;;6.25;;
8094;SDS011;4090;49.270;8.696;2023-08-20T10:37:43;8.38;;;6.35;;
8094;SDS011;4090;49.270;8.696;2023-08-20T10:40:51;6.80;;;6.07;;
8094;SDS011;4090;49.270;8.696;2023-08-20T10:43:36;7.90;;;6.28;;
8094;SDS011;4090;49.270;8.696;2023-08-20T10:46:19;8.15;;;6.25;;
8094;SDS011;4090;49.270;8.696;2023-08-20T10:49:03;7.35;;;5.95;;
8094;SDS011;4090;49.270;8.696;2023-08-20T10:51:46;8.88;;;6.25;;
8094;SDS011;4090;49.270;8.696;2023-08-20T10:54:29;6.93;;;6.05;;
8094;SDS011;4090;49.270;8.696;2023-08-20T10:57:11;10.35;;;7.38;;
8094;SDS011;4090;49.270;8.696;2023-08-20T10:59:58;8.40;;;5.72;;
8094;SDS011;4090;49.270;8.696;2023-08-20T11:02:40;7.90;;;5.63;;
8094;SDS011;4090;49.270;8.696;2023-08-20T11:05:22;10.75;;;6.05;;
8094;SDS011;4090;49.270;8.696;2023-08-20T11:08:05;6.35;;;5.53;;
8094;SDS011;4090;49.270;8.696;2023-08-20T11:10:48;7.85;;;5.30;;
8094;SDS011;4090;49.270;8.696;2023-08-20T11:13:31;5.45;;;4.93;;
8094;SDS011;4090;49.270;8.696;2023-08-20T11:16:19;7.30;;;5.55;;
8094;SDS011;4090;49.270;8.696;2023-08-20T11:19:01;6.47;;;5.30;;
8094;SDS011;4090;49.270;8.696;2023-08-20T11:21:46;6.47;;;5.15;;
8094;SDS011;4090;49.270;8.696;2023-08-20T11:24:29;6.60;;;5.32;;
8094;SDS011;4090;49.270;8.696;2023-08-20T11:27:11;6.28;;;5.18;;
8094;SDS011;4090;49.270;8.696;2023-08-20T11:29:53;7.93;;;5.40;;
8094;SDS011;4090;49.270;8.696;2023-08-20T11:32:38;8.65;;;4.88;;
8094;SDS011;4090;49.270;8.696;2023-08-20T11:35:20;7.10;;;5.38;;
8094;SDS011;4090;49.270;8.696;2023-08-20T11:38:02;6.13;;;5.20;;
8094;SDS011;4090;49.270;8.696;2023-08-20T11:40:45;8.10;;;5.30;;
8094;SDS011;4090;49.270;8.696;2023-08-20T11:43:27;8.30;;;5.28;;
8094;SDS011;4090;49.270;8.696;2023-08-20T11:46:12;15.45;;;5.32;;
8094;SDS011;4090;49.270;8.696;2023-08-20T11:49:00;8.05;;;5.30;;
8094;SDS011;4090;49.270;8.696;2023-08-20T11:51:44;8.70;;;5.20;;
8094;SDS011;4090;49.270;8.696;2023-08-20T11:54:26;5.25;;;4.72;;
8094;SDS011;4090;49.270;8.696;2023-08-20T11:57:09;5.43;;;4.93;;
8094;SDS011;4090;49.270;8.696;2023-08-20T11:59:51;9.80;;;5.20;;
8094;SDS011;4090;49.270;8.696;2023-08-20T12:02:33;6.43;;;4.75;;
8094;SDS011;4090;49.270;8.696;2023-08-20T12:05:19;6.55;;;4.35;;
8094;SDS011;4090;49.270;8.696;2023-08-20T12:08:02;5.30;;;4.80;;
8094;SDS011;4090;49.270;8.696;2023-08-20T12:10:44;8.68;;;5.13;;
8094;SDS011;4090;49.270;8.696;2023-08-20T12:13:26;7.07;;;5.20;;
8094;SDS011;4090;49.270;8.696;2023-08-20T12:16:09;5.72;;;5.15;;
8094;SDS011;4090;49.270;8.696;2023-08-20T12:18:51;6.65;;;4.78;;
8094;SDS011;4090;49.270;8.696;2023-08-20T12:21:35;6.03;;;4.82;;
8094;SDS011;4090;49.270;8.696;2023-08-20T12:24:17;5.32;;;4.82;;
8094;SDS011;4090;49.270;8.696;2023-08-20T12:27:00;6.70;;;4.72;;
8094;SDS011;4090;49.270;8.696;2023-08-20T12:29:43;7.15;;;4.63;;
8094;SDS011;4090;49.270;8.696;2023-08-20T12:32:26;5.53;;;5.03;;
8094;SDS011;4090;49.270;8.696;2023-08-20T12:35:08;6.65;;;4.80;;
8094;SDS011;4090;49.270;8.696;2023-08-20T12:37:51;4.80;;;4.22;;
8094;SDS011;4090;49.270;8.696;2023-08-20T12:40:34;5.40;;;4.90;;
8094;SDS011;4090;49.270;8.696;2023-08-20T12:43:16;6.78;;;4.95;;
8094;SDS011;4090;49.270;8.696;2023-08-20T12:45:59;5.20;;;4.70;;
8094;SDS011;4090;49.270;8.696;2023-08-20T12:48:41;5.00;;;4.50;;
8094;SDS011;4090;49.270;8.696;2023-08-20T12:51:23;5.97;;;5.00;;
8094;SDS011;4090;49.270;8.696;2023-08-20T12:54:07;6.22;;;4.82;;
8094;SDS011;4090;49.270;8.696;2023-08-20T12:56:49;5.22;;;4.72;;
8094;SDS011;4090;49.270;8.696;2023-08-20T12:59:31;5.00;;;4.50;;
8094;SDS011;4090;49.270;8.696;2023-08-20T13:02:13;5.30;;;4.80;;
8094;SDS011;4090;49.270;8.696;2023-08-20T13:04:56;7.85;;;5.00;;
8094;SDS011;4090;49.270;8.696;2023-08-20T13:07:39;5.57;;;4.43;;
8094;SDS011;4090;49.270;8.696;2023-08-20T13:10:22;4.72;;;4.32;;
8094;SDS011;4090;49.270;8.696;2023-08-20T13:13:05;7.25;;;4.57;;
8094;SDS011;4090;49.270;8.696;2023-08-20T13:15:51;6.15;;;4.55;;
8094;SDS011;4090;49.270;8.696;2023-08-20T13:18:33;6.82;;;4.93;;
8094;SDS011;4090;49.270;8.696;2023-08-20T13:21:15;5.38;;;4.82;;
8094;SDS011;4090;49.270;8.696;2023-08-20T13:23:58;5.40;;;4.40;;
8094;SDS011;4090;49.270;8.696;2023-08-20T13:26:41;5.10;;;4.60;;
8094;SDS011;4090;49.270;8.696;2023-08-20T13:29:24;5.70;;;5.20;;
8094;SDS011;4090;49.270;8.696;2023-08-20T13:32:07;6.32;;;4.40;;
8094;SDS011;4090;49.270;8.696;2023-08-20T13:34:49;5.00;;;4.47;;
8094;SDS011;4090;49.270;8.696;2023-08-20T13:37:31;6.22;;;4.78;;
8094;SDS011;4090;49.270;8.696;2023-08-20T13:40:14;7.13;;;5.40;;
8094;SDS011;4090;49.270;8.696;2023-08-20T13:42:57;5.32;;;4.60;;
8094;SDS011;4090;49.270;8.696;2023-08-20T13:45:39;5.57;;;5.03;;
8094;SDS011;4090;49.270;8.696;2023-08-20T13:48:21;5.78;;;5.22;;
8094;SDS011;4090;49.270;8.696;2023-08-20T13:51:03;5.47;;;5.03;;
8094;SDS011;4090;49.270;8.696;2023-08-20T13:53:45;5.97;;;4.57;;
8094;SDS011;4090;49.270;8.696;2023-08-20T13:56:27;5.90;;;4.72;;
8094;SDS011;4090;49.270;8.696;2023-08-20T13:59:10;5.20;;;4.70;;
8094;SDS011;4090;49.270;8.696;2023-08-20T14:01:52;5.32;;;4.82;;
8094;SDS011;4090;49.270;8.696;2023-08-20T14:04:35;6.25;;;4.95;;
8094;SDS011;4090;49.270;8.696;2023-08-20T14:07:17;4.65;;;4.15;;
8094;SDS011;4090;49.270;8.696;2023-08-20T14:09:59;6.93;;;5.30;;
8094;SDS011;4090;49.270;8.696;2023-08-20T14:12:41;5.70;;;4.50;;
8094;SDS011;4090;49.270;8.696;2023-08-20T14:15:25;5.78;;;4.60;;
8094;SDS011;4090;49.270;8.696;2023-08-20T14:18:07;6.47;;;5.38;;
8094;SDS011;4090;49.270;8.696;2023-08-20T14:20:49;5.18;;;4.72;;
8094;SDS011;4090;49.270;8.696;2023-08-20T14:23:31;5.03;;;4.53;;
8094;SDS011;4090;49.270;8.696;2023-08-20T14:26:12;6.70;;;5.05;;
8094;SDS011;4090;49.270;8.696;2023-08-20T14:28:55;6.15;;;4.72;;
8094;SDS011;4090;49.270;8.696;2023-08-20T14:31:39;5.05;;;4.43;;
8094;SDS011;4090;49.270;8.696;2023-08-20T14:34:22;4.95;;;4.50;;
8094;SDS011;4090;49.270;8.696;2023-08-20T14:37:04;7.55;;;4.68;;
8094;SDS011;4090;49.270;8.696;2023-08-20T14:39:46;5.75;;;4.57;;
8094;SDS011;4090;49.270;8.696;2023-08-20T14:42:28;7.85;;;4.90;;
8094;SDS011;4090;49.270;8.696;2023-08-20T14:45:10;6.13;;;4.80;;
8094;SDS011;4090;49.270;8.696;2023-08-20T14:47:53;5.07;;;4.60;;
8094;SDS011;4090;49.270;8.696;2023-08-20T14:50:35;4.70;;;4.20;;
8094;SDS011;4090;49.270;8.696;2023-08-20T14:53:17;5.70;;;4.68;;
8094;SDS011;4090;49.270;8.696;2023-08-20T14:55:59;5.38;;;4.43;;
8094;SDS011;4090;49.270;8.696;2023-08-20T14:58:40;4.40;;;4.00;;
8094;SDS011;4090;49.270;8.696;2023-08-20T15:01:22;5.05;;;4.53;;
8094;SDS011;4090;49.270;8.696;2023-08-20T15:04:05;6.03;;;4.32;;
8094;SDS011;4090;49.270;8.696;2023-08-20T15:06:47;5.28;;;4.47;;
8094;SDS011;4090;49.270;8.696;2023-08-20T15:09:29;4.35;;;3.95;;
8094;SDS011;4090;49.270;8.696;2023-08-20T15:12:11;5.95;;;4.35;;
8094;SDS011;4090;49.270;8.696;2023-08-20T15:14:53;4.95;;;3.60;;
8094;SDS011;4090;49.270;8.696;2023-08-20T15:17:35;4.93;;;4.25;;
8094;SDS011;4090;49.270;8.696;2023-08-20T15:20:19;7.18;;;4.60;;
8094;SDS011;4090;49.270;8.696;2023-08-20T15:23:01;5.25;;;3.92;;
8094;SDS011;4090;49.270;8.696;2023-08-20T15:25:46;5.93;;;3.90;;
8094;SDS011;4090;49.270;8.696;2023-08-20T15:28:28;4.45;;;3.80;;
8094;SDS011;4090;49.270;8.696;2023-08-20T15:31:10;6.32;;;3.90;;
8094;SDS011;4090;49.270;8.696;2023-08-20T15:33:52;4.47;;;4.03;;
8094;SDS011;4090;49.270;8.696;2023-08-20T15:36:35;5.32;;;4.13;;
8094;SDS011;4090;49.270;8.696;2023-08-20T15:39:17;4.25;;;3.70;;
8094;SDS011;4090;49.270;8.696;2023-08-20T15:42:00;6.63;;;4.00;;
8094;SDS011;4090;49.270;8.696;2023-08-20T15:44:43;4.45;;;4.05;;
8094;SDS011;4090;49.270;8.696;2023-08-20T15:47:25;5.63;;;3.95;;
8094;SDS011;4090;49.270;8.696;2023-08-20T15:50:07;5.50;;;4.22;;
8094;SDS011;4090;49.270;8.696;2023-08-20T15:52:50;5.75;;;4.00;;
8094;SDS011;4090;49.270;8.696;2023-08-20T15:55:32;5.18;;;4.47;;
8094;SDS011;4090;49.270;8.696;2023-08-20T15:58:14;13.98;;;9.45;;
8094;SDS011;4090;49.270;8.696;2023-08-20T16:00:56;6.50;;;5.25;;
8094;SDS011;4090;49.270;8.696;2023-08-20T16:03:38;9.40;;;7.05;;
8094;SDS011;4090;49.270;8.696;2023-08-20T16:06:20;28.60;;;20.00;;
8094;SDS011;4090;49.270;8.696;2023-08-20T16:09:03;46.15;;;31.20;;
8094;SDS011;4090;49.270;8.696;2023-08-20T16:11:46;75.20;;;67.00;;
8094;SDS011;4090;49.270;8.696;2023-08-20T16:14:27;57.70;;;40.20;;
8094;SDS011;4090;49.270;8.696;2023-08-20T16:17:10;15.63;;;13.90;;
8094;SDS011;4090;49.270;8.696;2023-08-20T16:19:52;26.02;;;23.48;;
8094;SDS011;4090;49.270;8.696;2023-08-20T16:22:34;143.65;;;129.68;;
8094;SDS011;4090;49.270;8.696;2023-08-20T16:25:18;127.03;;;113.80;;
8094;SDS011;4090;49.270;8.696;2023-08-20T16:28:00;143.43;;;129.45;;
8094;SDS011;4090;49.270;8.696;2023-08-20T16:30:42;31.05;;;28.02;;
8094;SDS011;4090;49.270;8.696;2023-08-20T16:33:26;8.75;;;7.93;;
8094;SDS011;4090;49.270;8.696;2023-08-20T16:36:09;5.80;;;4.35;;
8094;SDS011;4090;49.270;8.696;2023-08-20T16:38:51;6.35;;;4.00;;
8094;SDS011;4090;49.270;8.696;2023-08-20T16:41:35;57.30;;;30.55;;
8094;SDS011;4090;49.270;8.696;2023-08-20T16:44:17;20.70;;;12.65;;
8094;SDS011;4090;49.270;8.696;2023-08-20T16:47:00;21.00;;;13.55;;
8094;SDS011;4090;49.270;8.696;2023-08-20T16:49:42;8.55;;;6.50;;
8094;SDS011;4090;49.270;8.696;2023-08-20T16:52:24;6.05;;;4.28;;